createdAt,value
2023-04-09T00:01:21.276Z,13.43
2023-04-09T00:03:49.669Z,15.02
2023-04-09T00:06:18.030Z,12.32
2023-04-09T00:08:46.302Z,14.55
2023-04-09T00:11:14.849Z,12.40
2023-04-09T00:13:44.586Z,14.10
2023-04-09T00:16:13.192Z,12.75
2023-04-09T00:18:41.526Z,13.38
2023-04-09T00:21:10.022Z,13.52
2023-04-09T00:23:38.202Z,11.75
2023-04-09T00:26:06.453Z,12.93
2023-04-09T00:28:35.085Z,12.05
2023-04-09T00:31:04.831Z,14.20
2023-04-09T00:33:33.142Z,14.27
2023-04-09T00:36:01.656Z,14.35
2023-04-09T00:38:29.971Z,14.68
2023-04-09T00:40:58.312Z,12.70
2023-04-09T00:43:27.044Z,13.38
2023-04-09T00:45:55.866Z,14.18
2023-04-09T00:48:25.884Z,14.88
2023-04-09T00:50:54.313Z,15.32
2023-04-09T00:53:23.116Z,16.00
2023-04-09T00:55:51.552Z,16.65
2023-04-09T00:58:20.408Z,12.55
2023-04-09T01:00:48.615Z,12.88
2023-04-09T01:03:17.353Z,14.15
2023-04-09T01:05:55.560Z,12.02
2023-04-09T01:08:34.775Z,14.02
2023-04-09T01:11:11.239Z,13.80
2023-04-09T01:13:49.385Z,15.63
2023-04-09T01:16:20.143Z,13.52
2023-04-09T01:18:54.009Z,14.85
2023-04-09T01:21:29.052Z,13.77
2023-04-09T01:24:11.194Z,14.00
2023-04-09T01:26:57.282Z,15.00
2023-04-09T01:29:34.751Z,13.38
2023-04-09T01:32:04.348Z,14.57
2023-04-09T01:34:33.742Z,16.30
2023-04-09T01:37:04.505Z,15.98
2023-04-09T01:39:33.796Z,13.90
2023-04-09T01:42:03.965Z,14.57
2023-04-09T01:44:34.636Z,12.88
2023-04-09T01:47:03.019Z,13.88
2023-04-09T01:49:32.439Z,14.80
2023-04-09T01:52:01.528Z,14.43
2023-04-09T01:54:29.907Z,15.45
2023-04-09T01:56:59.126Z,16.55
2023-04-09T01:59:27.295Z,14.45
2023-04-09T02:02:02.554Z,16.55
2023-04-09T02:04:35.048Z,13.40
2023-04-09T02:07:10.654Z,13.63
2023-04-09T02:09:42.175Z,14.07
2023-04-09T02:12:14.870Z,15.25
2023-04-09T02:14:47.227Z,15.75
2023-04-09T02:17:16.975Z,14.93
2023-04-09T02:19:47.884Z,12.80
2023-04-09T02:22:17.407Z,13.35
2023-04-09T02:24:47.284Z,13.95
2023-04-09T02:27:16.304Z,13.75
2023-04-09T02:29:45.030Z,14.65
2023-04-09T02:32:14.411Z,14.15
2023-04-09T02:34:44.303Z,13.60
2023-04-09T02:37:12.540Z,13.95
2023-04-09T02:39:41.041Z,14.38
2023-04-09T02:42:09.306Z,13.52
2023-04-09T02:44:37.871Z,13.32
2023-04-09T02:47:06.827Z,13.27
2023-04-09T02:49:35.816Z,14.70
2023-04-09T02:52:05.608Z,13.48
2023-04-09T02:54:34.196Z,16.85
2023-04-09T02:57:02.355Z,14.45
2023-04-09T02:59:33.108Z,14.07
2023-04-09T03:02:02.187Z,14.60
2023-04-09T03:04:30.728Z,13.80
2023-04-09T03:06:59.027Z,15.10
2023-04-09T03:09:29.573Z,14.98
2023-04-09T03:11:58.250Z,13.55
2023-04-09T03:14:26.956Z,13.38
2023-04-09T03:16:55.781Z,13.70
2023-04-09T03:19:24.251Z,13.25
2023-04-09T03:21:52.726Z,14.60
2023-04-09T03:24:26.293Z,14.77
2023-04-09T03:26:58.530Z,14.35
2023-04-09T03:29:27.898Z,14.35
2023-04-09T03:31:56.339Z,14.73
2023-04-09T03:34:24.752Z,15.05
2023-04-09T03:36:55.873Z,15.63
2023-04-09T03:39:31.384Z,15.57
2023-04-09T03:42:02.127Z,15.20
2023-04-09T03:44:36.839Z,14.63
2023-04-09T03:47:09.835Z,14.95
2023-04-09T03:49:39.764Z,15.52
2023-04-09T03:52:22.460Z,14.93
2023-04-09T03:54:59.256Z,15.00
2023-04-09T03:57:30.464Z,14.68
2023-04-09T03:59:59.371Z,15.63
2023-04-09T04:02:30.650Z,15.77
2023-04-09T04:05:03.777Z,14.43
2023-04-09T04:07:37.509Z,18.77
2023-04-09T04:10:14.064Z,16.75
2023-04-09T04:12:47.293Z,16.85
2023-04-09T04:15:41.443Z,15.93
2023-04-09T04:18:11.638Z,19.98
2023-04-09T04:20:46.016Z,16.90
2023-04-09T04:23:16.160Z,20.50
2023-04-09T04:25:53.265Z,22.52
2023-04-09T04:28:30.162Z,23.35
2023-04-09T04:30:58.588Z,23.10
2023-04-09T04:33:27.672Z,20.65
2023-04-09T04:36:06.365Z,20.20
2023-04-09T04:38:39.946Z,19.92
2023-04-09T04:41:13.759Z,17.88
2023-04-09T04:43:49.565Z,19.13
2023-04-09T04:46:22.225Z,22.38
2023-04-09T04:48:50.916Z,20.00
2023-04-09T04:51:19.482Z,18.58
2023-04-09T04:54:00.123Z,20.17
2023-04-09T04:56:29.534Z,18.35
2023-04-09T04:59:11.574Z,20.55
2023-04-09T05:01:51.297Z,19.02
2023-04-09T05:04:19.605Z,21.70
2023-04-09T05:06:48.053Z,19.98
2023-04-09T05:09:22.345Z,20.95
2023-04-09T05:12:03.795Z,20.27
2023-04-09T05:14:34.232Z,19.08
2023-04-09T05:17:02.693Z,21.15
2023-04-09T05:19:41.718Z,21.25
2023-04-09T05:22:11.337Z,19.33
2023-04-09T05:24:39.567Z,17.70
2023-04-09T05:27:08.035Z,17.08
2023-04-09T05:29:37.976Z,20.75
2023-04-09T05:32:09.571Z,18.98
2023-04-09T05:34:41.168Z,18.50
2023-04-09T05:37:09.773Z,17.60
2023-04-09T05:39:38.196Z,21.85
2023-04-09T05:42:06.538Z,19.00
2023-04-09T05:44:43.235Z,18.75
2023-04-09T05:47:18.121Z,19.17
2023-04-09T05:49:59.555Z,20.52
2023-04-09T05:52:28.589Z,23.70
2023-04-09T05:54:57.540Z,22.77
2023-04-09T05:57:34.776Z,22.70
2023-04-09T06:00:08.241Z,20.70
2023-04-09T06:02:45.127Z,21.23
2023-04-09T06:05:13.449Z,19.80
2023-04-09T06:07:42.006Z,19.77
2023-04-09T06:10:10.743Z,21.15
2023-04-09T06:12:39.195Z,26.23
2023-04-09T06:15:09.466Z,25.65
2023-04-09T06:17:37.673Z,24.20
2023-04-09T06:20:06.659Z,25.35
2023-04-09T06:22:35.135Z,24.60
2023-04-09T06:25:03.294Z,27.70
2023-04-09T06:27:31.692Z,25.92
2023-04-09T06:30:00.247Z,24.95
2023-04-09T06:32:30.720Z,25.00
2023-04-09T06:35:01.986Z,22.33
2023-04-09T06:37:30.269Z,23.15
2023-04-09T06:40:01.324Z,21.90
2023-04-09T06:42:30.127Z,23.50
2023-04-09T06:45:17.267Z,21.80
2023-04-09T06:47:47.229Z,22.83
2023-04-09T06:50:15.617Z,23.60
2023-04-09T06:52:43.830Z,21.75
2023-04-09T06:55:12.752Z,25.58
2023-04-09T06:57:41.097Z,24.35
2023-04-09T07:00:10.939Z,26.17
2023-04-09T07:02:39.411Z,22.42
2023-04-09T07:05:10.074Z,23.85
2023-04-09T07:07:38.880Z,20.67
2023-04-09T07:10:08.674Z,20.27
2023-04-09T07:12:36.843Z,18.80
2023-04-09T07:15:07.055Z,16.65
2023-04-09T07:17:36.045Z,15.88
2023-04-09T07:20:04.990Z,15.27
2023-04-09T07:22:34.898Z,15.02
2023-04-09T07:25:03.159Z,16.88
2023-04-09T07:27:31.810Z,14.00
2023-04-09T07:30:00.877Z,14.45
2023-04-09T07:32:29.517Z,14.70
2023-04-09T07:34:59.582Z,13.20
2023-04-09T07:37:28.360Z,13.93
2023-04-09T07:44:22.369Z,15.18
2023-04-09T07:46:51.415Z,13.63
2023-04-09T07:49:19.835Z,14.40
2023-04-09T07:51:48.132Z,14.50
2023-04-09T07:54:55.229Z,14.30
2023-04-09T07:57:23.553Z,11.88
2023-04-09T07:59:54.176Z,14.05
2023-04-09T08:02:23.321Z,12.90
2023-04-09T08:04:52.049Z,13.20
2023-04-09T08:07:20.287Z,12.75
2023-04-09T08:09:48.819Z,11.15
2023-04-09T08:12:17.148Z,11.07
2023-04-09T08:14:45.438Z,12.00
2023-04-09T08:17:14.887Z,10.35
2023-04-09T08:19:43.293Z,10.35
2023-04-09T08:22:11.470Z,13.00
2023-04-09T08:24:40.390Z,11.48
2023-04-09T08:27:08.533Z,12.50
2023-04-09T08:29:37.058Z,11.50
2023-04-09T08:32:05.562Z,11.30
2023-04-09T08:34:35.078Z,11.90
2023-04-09T08:37:03.615Z,13.32
2023-04-09T08:39:31.908Z,11.05
2023-04-09T08:42:01.906Z,11.68
2023-04-09T08:44:30.985Z,10.18
2023-04-09T08:47:00.271Z,8.30
2023-04-09T08:49:28.551Z,9.70
2023-04-09T08:51:58.133Z,8.27
2023-04-09T08:54:26.991Z,7.80
2023-04-09T08:56:56.468Z,8.85
2023-04-09T08:59:24.646Z,8.15
2023-04-09T09:02:08.608Z,8.13
2023-04-09T09:04:46.506Z,6.10
2023-04-09T09:07:16.975Z,7.15
2023-04-09T09:09:52.836Z,6.75
2023-04-09T09:12:35.566Z,7.60
2023-04-09T09:15:04.394Z,8.25
2023-04-09T09:17:32.827Z,6.88
2023-04-09T09:20:04.371Z,5.80
2023-04-09T09:22:54.906Z,5.80
2023-04-09T09:25:25.940Z,6.00
2023-04-09T09:27:55.500Z,5.88
2023-04-09T09:30:51.627Z,6.18
2023-04-09T09:33:35.037Z,5.50
2023-04-09T09:36:03.985Z,4.95
2023-04-09T09:38:33.978Z,5.30
2023-04-09T09:41:18.248Z,5.78
2023-04-09T09:43:46.794Z,5.25
2023-04-09T09:46:16.250Z,4.20
2023-04-09T09:48:46.381Z,4.10
2023-04-09T09:51:15.523Z,4.07
2023-04-09T09:53:49.071Z,4.85
2023-04-09T09:56:24.767Z,4.32
2023-04-09T09:59:03.955Z,4.05
2023-04-09T10:01:32.283Z,4.50
2023-04-09T10:04:02.076Z,4.38
2023-04-09T10:06:31.944Z,4.00
2023-04-09T10:09:06.557Z,4.55
2023-04-09T10:11:37.255Z,4.00
2023-04-09T10:14:06.445Z,8.00
2023-04-09T10:16:35.541Z,8.75
2023-04-09T10:19:04.581Z,6.13
2023-04-09T10:21:42.843Z,4.70
2023-04-09T10:24:13.124Z,5.10
2023-04-09T10:26:44.363Z,4.88
2023-04-09T10:29:18.563Z,4.32
2023-04-09T10:31:50.849Z,4.10
2023-04-09T10:34:23.596Z,4.32
2023-04-09T10:36:55.005Z,5.45
2023-04-09T10:39:28.451Z,5.18
2023-04-09T10:41:58.526Z,5.50
2023-04-09T10:44:31.617Z,5.80
2023-04-09T10:47:01.232Z,5.78
2023-04-09T10:49:37.816Z,5.75
2023-04-09T10:52:10.201Z,5.93
2023-04-09T10:54:52.369Z,7.80
2023-04-09T10:57:22.572Z,6.20
2023-04-09T10:59:53.196Z,7.43
2023-04-09T11:03:01.848Z,7.03
2023-04-09T11:05:35.075Z,6.50
2023-04-09T11:08:07.395Z,4.60
2023-04-09T11:10:41.275Z,3.67
2023-04-09T11:13:13.460Z,3.72
2023-04-09T11:15:42.867Z,3.28
2023-04-09T11:18:16.255Z,4.03
2023-04-09T11:20:45.493Z,4.60
2023-04-09T11:23:15.534Z,4.22
2023-04-09T11:25:51.161Z,3.95
2023-04-09T11:28:20.055Z,2.83
2023-04-09T11:30:49.383Z,2.88
2023-04-09T11:33:20.024Z,3.78
2023-04-09T11:35:49.674Z,4.82
2023-04-09T11:38:18.674Z,4.95
2023-04-09T11:40:49.525Z,4.88
2023-04-09T11:43:21.275Z,4.35
2023-04-09T11:45:50.735Z,4.07
2023-04-09T11:48:21.989Z,4.43
2023-04-09T11:50:51.135Z,5.15
2023-04-09T11:53:21.337Z,4.60
2023-04-09T11:55:53.177Z,3.30
2023-04-09T11:58:24.913Z,4.57
2023-04-09T12:00:56.003Z,4.00
2023-04-09T12:03:33.718Z,4.60
2023-04-09T12:06:04.174Z,5.22
2023-04-09T12:08:34.704Z,5.43
2023-04-09T12:11:14.121Z,6.25
2023-04-09T12:13:44.923Z,5.10
2023-04-09T12:16:14.342Z,5.15
2023-04-09T12:18:43.238Z,4.97
2023-04-09T12:21:11.987Z,4.85
2023-04-09T12:23:40.935Z,5.53
2023-04-09T12:26:09.419Z,6.10
2023-04-09T12:28:39.286Z,5.35
2023-04-09T12:31:11.200Z,5.45
2023-04-09T12:33:41.155Z,5.75
2023-04-09T12:36:09.905Z,5.60
2023-04-09T12:38:38.636Z,5.70
2023-04-09T12:41:07.133Z,6.28
2023-04-09T12:43:35.449Z,4.78
2023-04-09T12:46:06.273Z,5.72
2023-04-09T12:48:35.340Z,5.07
2023-04-09T12:51:04.042Z,6.22
2023-04-09T12:53:32.716Z,5.82
2023-04-09T12:56:05.552Z,6.72
2023-04-09T12:58:34.404Z,7.18
2023-04-09T13:01:04.555Z,5.50
2023-04-09T13:03:35.306Z,5.10
2023-04-09T13:06:05.112Z,5.55
2023-04-09T13:08:33.536Z,5.10
2023-04-09T13:11:01.921Z,6.07
2023-04-09T13:13:31.854Z,5.30
2023-04-09T13:16:00.768Z,4.95
2023-04-09T13:18:29.455Z,5.32
2023-04-09T13:20:59.712Z,4.85
2023-04-09T13:23:28.509Z,5.68
2023-04-09T13:25:57.531Z,5.03
2023-04-09T13:28:26.190Z,5.38
2023-04-09T13:30:54.965Z,5.20
2023-04-09T13:33:23.954Z,6.45
2023-04-09T13:35:52.764Z,5.63
2023-04-09T13:38:22.641Z,5.93
2023-04-09T13:40:51.354Z,6.43
2023-04-09T13:43:19.960Z,5.55
2023-04-09T13:45:49.969Z,6.25
2023-04-09T13:48:18.411Z,5.65
2023-04-09T13:50:47.098Z,4.55
2023-04-09T13:53:15.638Z,5.70
2023-04-09T13:55:45.587Z,5.00
2023-04-09T13:58:14.187Z,5.40
2023-04-09T14:00:43.406Z,5.57
2023-04-09T14:03:14.644Z,4.97
2023-04-09T14:05:43.601Z,5.50
2023-04-09T14:08:12.284Z,5.38
2023-04-09T14:10:40.566Z,5.00
2023-04-09T14:13:12.165Z,4.60
2023-04-09T14:15:41.759Z,5.00
2023-04-09T14:18:11.323Z,5.47
2023-04-09T14:20:42.415Z,5.80
2023-04-09T14:23:11.428Z,5.72
2023-04-09T14:25:39.843Z,5.35
2023-04-09T14:28:08.554Z,4.90
2023-04-09T14:30:38.276Z,5.22
2023-04-09T14:33:07.010Z,4.85
2023-04-09T14:35:35.559Z,4.88
2023-04-09T14:38:04.482Z,5.22
2023-04-09T14:40:33.383Z,4.70
2023-04-09T14:43:02.113Z,4.82
2023-04-09T14:45:31.010Z,5.40
2023-04-09T14:48:00.925Z,5.10
2023-04-09T14:50:31.051Z,4.95
2023-04-09T14:52:59.609Z,4.97
2023-04-09T14:55:27.989Z,5.88
2023-04-09T14:57:57.624Z,5.43
2023-04-09T15:00:26.888Z,5.00
2023-04-09T15:02:56.534Z,5.45
2023-04-09T15:05:26.525Z,4.60
2023-04-09T15:07:56.196Z,5.30
2023-04-09T15:10:24.551Z,4.25
2023-04-09T15:12:52.918Z,5.13
2023-04-09T15:15:21.261Z,4.57
2023-04-09T15:17:49.476Z,4.40
2023-04-09T15:20:18.401Z,5.65
2023-04-09T15:22:48.223Z,4.75
2023-04-09T15:25:17.368Z,5.88
2023-04-09T15:27:46.658Z,5.00
2023-04-09T15:30:15.022Z,4.95
2023-04-09T15:32:43.342Z,5.28
2023-04-09T15:35:13.810Z,5.43
2023-04-09T15:37:43.508Z,5.03
2023-04-09T15:40:14.559Z,5.57
2023-04-09T15:42:43.650Z,5.45
2023-04-09T15:45:12.420Z,5.47
2023-04-09T15:47:40.826Z,4.35
2023-04-09T15:50:10.470Z,5.15
2023-04-09T15:52:38.768Z,5.35
2023-04-09T15:55:07.701Z,5.50
2023-04-09T15:57:38.497Z,5.10
2023-04-09T16:00:10.607Z,5.75
2023-04-09T16:02:40.913Z,5.70
2023-04-09T16:05:09.564Z,5.50
2023-04-09T16:07:38.961Z,5.72
2023-04-09T16:10:08.288Z,4.93
2023-04-09T16:12:38.084Z,5.30
2023-04-09T16:15:07.131Z,4.93
2023-04-09T16:17:40.742Z,5.30
2023-04-09T16:20:10.465Z,5.95
2023-04-09T16:22:38.851Z,5.78
2023-04-09T16:25:08.112Z,5.93
2023-04-09T16:27:37.766Z,6.40
2023-04-09T16:30:07.296Z,5.53
2023-04-09T16:32:35.464Z,5.30
2023-04-09T16:35:03.894Z,5.53
2023-04-09T16:37:32.313Z,5.20
2023-04-09T16:40:00.651Z,5.75
2023-04-09T16:42:30.486Z,5.50
2023-04-09T16:45:00.083Z,5.22
2023-04-09T16:47:28.514Z,5.63
2023-04-09T16:49:56.673Z,5.60
2023-04-09T16:52:25.346Z,6.20
2023-04-09T16:54:53.619Z,5.40
2023-04-09T16:57:21.941Z,5.03
2023-04-09T16:59:50.092Z,5.32
2023-04-09T17:02:21.803Z,5.53
2023-04-09T17:04:50.356Z,5.30
2023-04-09T17:07:18.731Z,5.60
2023-04-09T17:09:46.833Z,5.38
2023-04-09T17:12:15.144Z,5.75
2023-04-09T17:14:44.577Z,5.97
2023-04-09T17:17:13.006Z,5.75
2023-04-09T17:19:42.949Z,5.50
2023-04-09T17:22:13.532Z,6.70
2023-04-09T17:24:41.741Z,5.85
2023-04-09T17:27:10.880Z,5.22
2023-04-09T17:29:39.242Z,6.30
2023-04-09T17:32:07.503Z,5.95
2023-04-09T17:34:36.317Z,5.63
2023-04-09T17:37:05.783Z,5.90
2023-04-09T17:39:34.271Z,5.38
2023-04-09T17:42:04.822Z,5.35
2023-04-09T17:44:35.304Z,5.07
2023-04-09T17:47:03.761Z,5.55
2023-04-09T17:49:32.883Z,5.18
2023-04-09T17:52:01.391Z,5.13
2023-04-09T17:54:35.227Z,4.75
2023-04-09T17:57:04.266Z,4.85
2023-04-09T17:59:33.422Z,4.78
2023-04-09T18:02:02.454Z,4.70
2023-04-09T18:04:31.641Z,5.45
2023-04-09T18:07:00.398Z,4.18
2023-04-09T18:09:32.137Z,5.28
2023-04-09T18:12:02.894Z,5.22
2023-04-09T18:14:32.547Z,4.95
2023-04-09T18:17:01.280Z,4.50
2023-04-09T18:19:29.465Z,4.55
2023-04-09T18:21:57.694Z,5.05
2023-04-09T18:24:26.415Z,4.95
2023-04-09T18:26:54.797Z,4.70
2023-04-09T18:29:24.408Z,5.10
2023-04-09T18:31:52.805Z,4.95
2023-04-09T18:34:22.334Z,5.80
2023-04-09T18:36:50.675Z,5.10
2023-04-09T18:39:19.641Z,4.80
2023-04-09T18:41:48.140Z,4.20
2023-04-09T18:44:16.455Z,4.55
2023-04-09T18:46:46.876Z,4.90
2023-04-09T18:49:15.149Z,4.55
2023-04-09T18:51:43.564Z,5.63
2023-04-09T18:54:11.663Z,4.85
2023-04-09T18:56:40.496Z,6.00
2023-04-09T18:59:08.924Z,5.00
2023-04-09T19:01:37.541Z,5.20
2023-04-09T19:04:07.284Z,4.88
2023-04-09T19:06:36.260Z,5.72
2023-04-09T19:09:04.864Z,5.70
2023-04-09T19:11:33.130Z,5.18
2023-04-09T19:14:02.319Z,5.15
2023-04-09T19:16:30.899Z,5.97
2023-04-09T19:18:59.154Z,5.30
2023-04-09T19:21:29.492Z,5.80
2023-04-09T19:24:00.008Z,6.15
2023-04-09T19:26:28.414Z,6.13
2023-04-09T19:28:56.877Z,6.10
2023-04-09T19:31:25.198Z,5.32
2023-04-09T19:33:53.678Z,6.05
2023-04-09T19:36:22.627Z,6.30
2023-04-09T19:38:52.894Z,7.60
2023-04-09T19:41:21.293Z,7.30
2023-04-09T19:43:49.673Z,7.00
2023-04-09T19:46:17.974Z,8.18
2023-04-09T19:48:46.467Z,5.80
2023-04-09T19:51:18.510Z,6.90
2023-04-09T19:53:47.453Z,7.10
2023-04-09T19:56:17.329Z,7.28
2023-04-09T19:58:45.965Z,8.48
2023-04-09T20:01:14.335Z,6.88
2023-04-09T20:03:42.840Z,7.63
2023-04-09T20:06:11.904Z,7.57
2023-04-09T20:08:40.940Z,8.02
2023-04-09T20:11:09.441Z,8.13
2023-04-09T20:13:39.324Z,8.15
2023-04-09T20:16:08.115Z,8.25
2023-04-09T20:18:36.266Z,8.00
2023-04-09T20:21:05.156Z,6.22
2023-04-09T20:23:33.711Z,7.10
2023-04-09T20:26:02.912Z,7.03
2023-04-09T20:28:31.133Z,6.78
2023-04-09T20:31:03.755Z,6.70
2023-04-09T20:33:32.422Z,7.63
2023-04-09T20:36:00.984Z,6.50
2023-04-09T20:38:29.278Z,7.50
2023-04-09T20:40:57.742Z,6.70
2023-04-09T20:43:26.095Z,6.93
2023-04-09T20:45:54.699Z,7.53
2023-04-09T20:48:24.466Z,6.75
2023-04-09T20:50:52.637Z,8.13
2023-04-09T20:53:21.087Z,7.50
2023-04-09T20:55:49.330Z,7.82
2023-04-09T20:58:17.789Z,8.23
2023-04-09T21:00:46.185Z,8.70
2023-04-09T21:03:14.725Z,7.47
2023-04-09T21:05:44.531Z,6.97
2023-04-09T21:08:15.565Z,8.63
2023-04-09T21:10:43.718Z,9.02
2023-04-09T21:13:12.115Z,8.02
2023-04-09T21:15:40.578Z,8.10
2023-04-09T21:18:08.920Z,8.23
2023-04-09T21:20:37.302Z,7.80
2023-04-09T21:23:07.535Z,8.30
2023-04-09T21:25:35.901Z,7.90
2023-04-09T21:28:04.340Z,7.97
2023-04-09T21:30:33.437Z,7.40
2023-04-09T21:33:04.030Z,9.52
2023-04-09T21:35:32.820Z,7.88
2023-04-09T21:38:02.833Z,8.07
2023-04-09T21:40:33.083Z,9.32
2023-04-09T21:43:01.313Z,8.43
2023-04-09T21:45:30.018Z,8.95
2023-04-09T21:47:58.528Z,10.02
2023-04-09T21:50:26.823Z,9.30
2023-04-09T21:52:55.122Z,10.48
2023-04-09T21:55:23.474Z,9.57
2023-04-09T21:57:55.416Z,9.65
2023-04-09T22:00:23.566Z,8.88
2023-04-09T22:02:51.920Z,8.45
2023-04-09T22:05:20.132Z,9.55
2023-04-09T22:07:48.406Z,8.35
2023-04-09T22:10:16.528Z,8.88
2023-04-09T22:12:44.881Z,9.88
2023-04-09T22:15:14.992Z,10.35
2023-04-09T22:17:43.710Z,10.40
2023-04-09T22:20:12.328Z,10.00
2023-04-09T22:22:42.202Z,9.90
2023-04-09T22:25:12.056Z,10.52
2023-04-09T22:27:40.280Z,10.88
2023-04-09T22:30:11.122Z,10.73
2023-04-09T22:32:41.057Z,10.40
2023-04-09T22:35:10.522Z,9.20
2023-04-09T22:37:40.401Z,10.20
2023-04-09T22:40:14.932Z,8.82
2023-04-09T22:42:44.256Z,9.43
2023-04-09T22:45:12.900Z,9.77
2023-04-09T22:47:42.915Z,9.32
2023-04-09T22:50:13.598Z,10.25
2023-04-09T22:52:42.859Z,10.73
2023-04-09T22:55:13.698Z,10.00
2023-04-09T22:57:44.518Z,10.52
2023-04-09T23:00:13.652Z,8.90
2023-04-09T23:02:43.723Z,10.30
2023-04-09T23:05:12.470Z,10.88
2023-04-09T23:07:42.889Z,10.10
2023-04-09T23:10:14.434Z,9.40
2023-04-09T23:12:42.988Z,11.60
2023-04-09T23:15:12.798Z,11.15
2023-04-09T23:17:42.301Z,10.75
2023-04-09T23:20:15.169Z,9.98
2023-04-09T23:22:43.949Z,10.70
2023-04-09T23:25:13.731Z,9.90
2023-04-09T23:27:43.113Z,10.15
2023-04-09T23:30:16.956Z,10.15
2023-04-09T23:32:46.241Z,10.60
2023-04-09T23:35:16.848Z,10.10
2023-04-09T23:37:45.792Z,12.02
2023-04-09T23:40:15.249Z,10.75
2023-04-09T23:42:43.866Z,10.00
2023-04-09T23:45:13.042Z,11.18
2023-04-09T23:47:42.583Z,11.82
2023-04-09T23:50:11.802Z,9.30
2023-04-09T23:52:48.509Z,11.65
2023-04-09T23:55:17.649Z,10.95
2023-04-09T23:57:46.135Z,10.98
